sensor_id;sensor_type;location;lat;lon;timestamp;P1;durP1;ratioP1;P2;durP2;ratioP2
64936;SDS011;51452;47.698;19.050;2023-01-01T00:01:30;89.03;;;46.90;;
64936;SDS011;51452;47.698;19.050;2023-01-01T00:03:56;77.70;;;36.20;;
64936;SDS011;51452;47.698;19.050;2023-01-01T00:06:23;68.53;;;35.53;;
64936;SDS011;51452;47.698;19.050;2023-01-01T00:08:49;65.20;;;33.30;;
64936;SDS011;51452;47.698;19.050;2023-01-01T00:11:37;62.63;;;30.43;;
64936;SDS011;51452;47.698;19.050;2023-01-01T00:14:03;57.50;;;30.03;;
64936;SDS011;51452;47.698;19.050;2023-01-01T00:16:28;59.60;;;29.60;;
64936;SDS011;51452;47.698;19.050;2023-01-01T00:18:54;65.13;;;29.70;;
64936;SDS011;51452;47.698;19.050;2023-01-01T00:21:19;67.47;;;30.57;;
64936;SDS011;51452;47.698;19.050;2023-01-01T00:23:44;68.03;;;31.53;;
64936;SDS011;51452;47.698;19.050;2023-01-01T00:26:10;65.67;;;30.90;;
64936;SDS011;51452;47.698;19.050;2023-01-01T00:28:37;53.87;;;28.87;;
64936;SDS011;51452;47.698;19.050;2023-01-01T00:31:10;59.53;;;30.83;;
64936;SDS011;51452;47.698;19.050;2023-01-01T00:33:43;60.70;;;29.03;;
64936;SDS011;51452;47.698;19.050;2023-01-01T00:36:15;53.43;;;26.80;;
64936;SDS011;51452;47.698;19.050;2023-01-01T00:38:42;56.83;;;27.87;;
64936;SDS011;51452;47.698;19.050;2023-01-01T00:41:09;47.10;;;25.20;;
64936;SDS011;51452;47.698;19.050;2023-01-01T00:43:37;54.10;;;27.43;;
64936;SDS011;51452;47.698;19.050;2023-01-01T00:46:04;54.13;;;27.57;;
64936;SDS011;51452;47.698;19.050;2023-01-01T00:48:30;53.17;;;27.33;;
64936;SDS011;51452;47.698;19.050;2023-01-01T00:50:56;50.43;;;26.00;;
64936;SDS011;51452;47.698;19.050;2023-01-01T00:53:21;58.70;;;30.50;;
64936;SDS011;51452;47.698;19.050;2023-01-01T00:55:48;52.17;;;27.43;;
64936;SDS011;51452;47.698;19.050;2023-01-01T00:58:14;50.37;;;27.63;;
64936;SDS011;51452;47.698;19.050;2023-01-01T01:00:40;55.43;;;26.53;;
64936;SDS011;51452;47.698;19.050;2023-01-01T01:03:06;53.60;;;26.87;;
64936;SDS011;51452;47.698;19.050;2023-01-01T01:05:32;49.97;;;27.13;;
64936;SDS011;51452;47.698;19.050;2023-01-01T01:07:58;53.00;;;27.07;;
64936;SDS011;51452;47.698;19.050;2023-01-01T01:10:24;52.30;;;25.90;;
64936;SDS011;51452;47.698;19.050;2023-01-01T01:12:53;55.97;;;25.93;;
64936;SDS011;51452;47.698;19.050;2023-01-01T01:15:18;56.00;;;28.37;;
64936;SDS011;51452;47.698;19.050;2023-01-01T01:17:44;61.63;;;31.10;;
64936;SDS011;51452;47.698;19.050;2023-01-01T01:20:10;65.47;;;31.17;;
64936;SDS011;51452;47.698;19.050;2023-01-01T01:22:36;65.00;;;32.90;;
64936;SDS011;51452;47.698;19.050;2023-01-01T01:25:02;53.23;;;26.90;;
64936;SDS011;51452;47.698;19.050;2023-01-01T01:27:27;46.37;;;23.43;;
64936;SDS011;51452;47.698;19.050;2023-01-01T01:29:53;44.27;;;22.43;;
64936;SDS011;51452;47.698;19.050;2023-01-01T01:32:18;45.93;;;23.13;;
64936;SDS011;51452;47.698;19.050;2023-01-01T01:34:47;46.43;;;23.50;;
64936;SDS011;51452;47.698;19.050;2023-01-01T01:37:12;45.77;;;23.63;;
64936;SDS011;51452;47.698;19.050;2023-01-01T01:39:38;47.33;;;23.30;;
64936;SDS011;51452;47.698;19.050;2023-01-01T01:42:03;51.37;;;24.53;;
64936;SDS011;51452;47.698;19.050;2023-01-01T01:47:16;53.13;;;23.93;;
64936;SDS011;51452;47.698;19.050;2023-01-01T01:49:53;50.17;;;22.67;;
64936;SDS011;51452;47.698;19.050;2023-01-01T01:52:23;50.50;;;22.90;;
64936;SDS011;51452;47.698;19.050;2023-01-01T01:54:50;37.53;;;20.13;;
64936;SDS011;51452;47.698;19.050;2023-01-01T01:57:16;37.10;;;19.93;;
64936;SDS011;51452;47.698;19.050;2023-01-01T01:59:43;33.53;;;18.40;;
64936;SDS011;51452;47.698;19.050;2023-01-01T02:02:19;39.80;;;19.13;;
64936;SDS011;51452;47.698;19.050;2023-01-01T02:04:51;36.90;;;20.77;;
64936;SDS011;51452;47.698;19.050;2023-01-01T02:07:18;40.03;;;19.70;;
64936;SDS011;51452;47.698;19.050;2023-01-01T02:09:46;36.57;;;19.33;;
64936;SDS011;51452;47.698;19.050;2023-01-01T02:12:11;35.47;;;18.50;;
64936;SDS011;51452;47.698;19.050;2023-01-01T02:14:37;39.03;;;21.33;;
64936;SDS011;51452;47.698;19.050;2023-01-01T02:17:06;46.07;;;22.07;;
64936;SDS011;51452;47.698;19.050;2023-01-01T02:25:11;35.47;;;16.83;;
64936;SDS011;51452;47.698;19.050;2023-01-01T02:30:40;33.60;;;16.83;;
64936;SDS011;51452;47.698;19.050;2023-01-01T02:33:10;35.63;;;17.73;;
64936;SDS011;51452;47.698;19.050;2023-01-01T02:35:41;37.43;;;18.97;;
64936;SDS011;51452;47.698;19.050;2023-01-01T02:40:44;36.90;;;19.10;;
64936;SDS011;51452;47.698;19.050;2023-01-01T02:43:12;38.70;;;20.70;;
64936;SDS011;51452;47.698;19.050;2023-01-01T02:45:38;41.90;;;21.80;;
64936;SDS011;51452;47.698;19.050;2023-01-01T02:48:05;47.73;;;23.50;;
64936;SDS011;51452;47.698;19.050;2023-01-01T02:50:31;48.00;;;23.83;;
64936;SDS011;51452;47.698;19.050;2023-01-01T03:00:54;38.40;;;20.40;;
64936;SDS011;51452;47.698;19.050;2023-01-01T03:03:27;95.63;;;23.63;;
64936;SDS011;51452;47.698;19.050;2023-01-01T03:06:24;56.00;;;24.93;;
64936;SDS011;51452;47.698;19.050;2023-01-01T03:11:56;74.03;;;28.60;;
64936;SDS011;51452;47.698;19.050;2023-01-01T03:14:49;92.40;;;28.03;;
64936;SDS011;51452;47.698;19.050;2023-01-01T03:17:35;62.17;;;27.93;;
64936;SDS011;51452;47.698;19.050;2023-01-01T03:20:21;70.32;;;29.45;;
64936;SDS011;51452;47.698;19.050;2023-01-01T03:22:50;64.80;;;29.07;;
64936;SDS011;51452;47.698;19.050;2023-01-01T03:25:24;67.13;;;28.23;;
64936;SDS011;51452;47.698;19.050;2023-01-01T03:27:54;64.80;;;29.40;;
64936;SDS011;51452;47.698;19.050;2023-01-01T03:30:34;65.00;;;29.30;;
64936;SDS011;51452;47.698;19.050;2023-01-01T03:33:07;67.37;;;29.77;;
64936;SDS011;51452;47.698;19.050;2023-01-01T03:35:49;58.53;;;26.53;;
64936;SDS011;51452;47.698;19.050;2023-01-01T03:38:34;61.70;;;27.00;;
64936;SDS011;51452;47.698;19.050;2023-01-01T03:41:04;79.57;;;30.23;;
64936;SDS011;51452;47.698;19.050;2023-01-01T03:46:23;64.97;;;27.83;;
64936;SDS011;51452;47.698;19.050;2023-01-01T03:48:52;67.03;;;28.37;;
64936;SDS011;51452;47.698;19.050;2023-01-01T03:51:22;66.37;;;29.53;;
64936;SDS011;51452;47.698;19.050;2023-01-01T03:54:00;65.20;;;28.77;;
64936;SDS011;51452;47.698;19.050;2023-01-01T03:59:12;58.30;;;26.87;;
64936;SDS011;51452;47.698;19.050;2023-01-01T04:01:47;53.57;;;26.53;;
64936;SDS011;51452;47.698;19.050;2023-01-01T04:04:17;55.60;;;26.77;;
64936;SDS011;51452;47.698;19.050;2023-01-01T04:06:43;47.80;;;25.13;;
64936;SDS011;51452;47.698;19.050;2023-01-01T04:09:10;48.23;;;23.03;;
64936;SDS011;51452;47.698;19.050;2023-01-01T04:11:41;52.87;;;24.37;;
64936;SDS011;51452;47.698;19.050;2023-01-01T04:14:35;54.17;;;26.80;;
64936;SDS011;51452;47.698;19.050;2023-01-01T04:17:02;76.33;;;29.77;;
64936;SDS011;51452;47.698;19.050;2023-01-01T04:19:29;84.93;;;26.10;;
64936;SDS011;51452;47.698;19.050;2023-01-01T04:21:55;64.57;;;25.77;;
64936;SDS011;51452;47.698;19.050;2023-01-01T04:24:20;62.17;;;25.10;;
64936;SDS011;51452;47.698;19.050;2023-01-01T04:26:47;87.43;;;25.83;;
64936;SDS011;51452;47.698;19.050;2023-01-01T04:29:13;56.53;;;22.90;;
64936;SDS011;51452;47.698;19.050;2023-01-01T04:31:38;51.10;;;22.73;;
64936;SDS011;51452;47.698;19.050;2023-01-01T04:34:03;61.77;;;24.03;;
64936;SDS011;51452;47.698;19.050;2023-01-01T04:36:29;60.73;;;23.17;;
64936;SDS011;51452;47.698;19.050;2023-01-01T04:38:54;74.23;;;23.63;;
64936;SDS011;51452;47.698;19.050;2023-01-01T04:41:20;84.37;;;24.80;;
64936;SDS011;51452;47.698;19.050;2023-01-01T04:43:46;68.83;;;24.23;;
64936;SDS011;51452;47.698;19.050;2023-01-01T04:46:14;57.30;;;21.87;;
64936;SDS011;51452;47.698;19.050;2023-01-01T04:48:41;79.33;;;22.67;;
64936;SDS011;51452;47.698;19.050;2023-01-01T04:51:07;61.10;;;21.93;;
64936;SDS011;51452;47.698;19.050;2023-01-01T04:53:34;48.57;;;19.10;;
64936;SDS011;51452;47.698;19.050;2023-01-01T04:56:06;46.93;;;20.03;;
64936;SDS011;51452;47.698;19.050;2023-01-01T04:58:33;41.77;;;19.37;;
64936;SDS011;51452;47.698;19.050;2023-01-01T05:00:59;39.17;;;18.70;;
64936;SDS011;51452;47.698;19.050;2023-01-01T05:03:25;38.97;;;18.33;;
64936;SDS011;51452;47.698;19.050;2023-01-01T05:08:27;39.60;;;18.13;;
64936;SDS011;51452;47.698;19.050;2023-01-01T05:10:58;76.27;;;19.23;;
64936;SDS011;51452;47.698;19.050;2023-01-01T05:13:25;41.67;;;17.70;;
64936;SDS011;51452;47.698;19.050;2023-01-01T05:15:50;43.47;;;17.37;;
64936;SDS011;51452;47.698;19.050;2023-01-01T05:18:15;36.43;;;18.23;;
64936;SDS011;51452;47.698;19.050;2023-01-01T05:20:41;42.60;;;17.60;;
64936;SDS011;51452;47.698;19.050;2023-01-01T05:23:06;44.67;;;17.17;;
64936;SDS011;51452;47.698;19.050;2023-01-01T05:25:31;48.70;;;17.60;;
64936;SDS011;51452;47.698;19.050;2023-01-01T05:27:57;39.63;;;17.40;;
64936;SDS011;51452;47.698;19.050;2023-01-01T05:30:22;48.43;;;18.10;;
64936;SDS011;51452;47.698;19.050;2023-01-01T05:32:48;41.00;;;18.90;;
64936;SDS011;51452;47.698;19.050;2023-01-01T05:35:13;46.10;;;17.87;;
64936;SDS011;51452;47.698;19.050;2023-01-01T05:37:38;47.00;;;18.60;;
64936;SDS011;51452;47.698;19.050;2023-01-01T05:40:04;40.43;;;18.83;;
64936;SDS011;51452;47.698;19.050;2023-01-01T05:42:30;40.73;;;17.47;;
64936;SDS011;51452;47.698;19.050;2023-01-01T05:44:55;33.97;;;17.77;;
64936;SDS011;51452;47.698;19.050;2023-01-01T05:47:20;37.30;;;17.97;;
64936;SDS011;51452;47.698;19.050;2023-01-01T05:49:46;38.20;;;18.60;;
64936;SDS011;51452;47.698;19.050;2023-01-01T05:52:11;34.33;;;17.93;;
64936;SDS011;51452;47.698;19.050;2023-01-01T05:54:37;29.57;;;16.83;;
64936;SDS011;51452;47.698;19.050;2023-01-01T05:57:02;32.27;;;18.47;;
64936;SDS011;51452;47.698;19.050;2023-01-01T05:59:28;31.33;;;17.47;;
64936;SDS011;51452;47.698;19.050;2023-01-01T06:01:53;36.70;;;17.17;;
64936;SDS011;51452;47.698;19.050;2023-01-01T06:04:18;33.20;;;17.50;;
64936;SDS011;51452;47.698;19.050;2023-01-01T06:06:44;28.43;;;16.63;;
64936;SDS011;51452;47.698;19.050;2023-01-01T06:09:09;29.10;;;15.93;;
64936;SDS011;51452;47.698;19.050;2023-01-01T06:11:35;25.80;;;15.33;;
64936;SDS011;51452;47.698;19.050;2023-01-01T06:14:01;27.23;;;16.07;;
64936;SDS011;51452;47.698;19.050;2023-01-01T06:16:27;24.93;;;14.60;;
64936;SDS011;51452;47.698;19.050;2023-01-01T06:18:53;22.87;;;13.77;;
64936;SDS011;51452;47.698;19.050;2023-01-01T06:21:19;21.47;;;13.80;;
64936;SDS011;51452;47.698;19.050;2023-01-01T06:23:47;23.73;;;14.03;;
64936;SDS011;51452;47.698;19.050;2023-01-01T06:26:13;23.77;;;13.60;;
64936;SDS011;51452;47.698;19.050;2023-01-01T06:28:40;23.53;;;13.23;;
64936;SDS011;51452;47.698;19.050;2023-01-01T06:31:07;20.90;;;12.17;;
64936;SDS011;51452;47.698;19.050;2023-01-01T06:33:34;25.30;;;13.80;;
64936;SDS011;51452;47.698;19.050;2023-01-01T06:36:01;21.43;;;11.73;;
64936;SDS011;51452;47.698;19.050;2023-01-01T06:38:36;18.63;;;11.83;;
64936;SDS011;51452;47.698;19.050;2023-01-01T06:41:04;23.30;;;12.87;;
64936;SDS011;51452;47.698;19.050;2023-01-01T06:43:35;23.47;;;13.50;;
64936;SDS011;51452;47.698;19.050;2023-01-01T06:46:02;25.23;;;13.53;;
64936;SDS011;51452;47.698;19.050;2023-01-01T06:48:41;19.87;;;12.50;;
64936;SDS011;51452;47.698;19.050;2023-01-01T06:51:08;21.93;;;12.67;;
64936;SDS011;51452;47.698;19.050;2023-01-01T06:53:35;22.50;;;13.30;;
64936;SDS011;51452;47.698;19.050;2023-01-01T06:56:00;25.23;;;13.13;;
64936;SDS011;51452;47.698;19.050;2023-01-01T06:58:26;25.17;;;13.33;;
64936;SDS011;51452;47.698;19.050;2023-01-01T07:00:52;25.43;;;12.87;;
64936;SDS011;51452;47.698;19.050;2023-01-01T07:03:17;23.97;;;13.13;;
64936;SDS011;51452;47.698;19.050;2023-01-01T07:05:42;32.73;;;14.07;;
64936;SDS011;51452;47.698;19.050;2023-01-01T07:08:08;43.27;;;15.13;;
64936;SDS011;51452;47.698;19.050;2023-01-01T07:10:33;46.07;;;14.57;;
64936;SDS011;51452;47.698;19.050;2023-01-01T07:12:59;40.90;;;15.37;;
64936;SDS011;51452;47.698;19.050;2023-01-01T07:15:25;44.43;;;14.43;;
64936;SDS011;51452;47.698;19.050;2023-01-01T07:17:51;27.87;;;13.63;;
64936;SDS011;51452;47.698;19.050;2023-01-01T07:20:16;39.60;;;14.53;;
64936;SDS011;51452;47.698;19.050;2023-01-01T07:22:42;38.10;;;15.00;;
64936;SDS011;51452;47.698;19.050;2023-01-01T07:25:08;66.67;;;15.10;;
64936;SDS011;51452;47.698;19.050;2023-01-01T07:27:37;28.53;;;14.37;;
64936;SDS011;51452;47.698;19.050;2023-01-01T07:30:03;60.40;;;15.50;;
64936;SDS011;51452;47.698;19.050;2023-01-01T07:32:29;32.63;;;13.67;;
64936;SDS011;51452;47.698;19.050;2023-01-01T07:34:54;50.67;;;14.53;;
64936;SDS011;51452;47.698;19.050;2023-01-01T07:37:20;32.17;;;14.83;;
64936;SDS011;51452;47.698;19.050;2023-01-01T07:39:49;35.33;;;14.93;;
64936;SDS011;51452;47.698;19.050;2023-01-01T07:42:14;35.13;;;15.57;;
64936;SDS011;51452;47.698;19.050;2023-01-01T07:44:39;36.43;;;15.33;;
64936;SDS011;51452;47.698;19.050;2023-01-01T07:47:08;33.20;;;14.93;;
64936;SDS011;51452;47.698;19.050;2023-01-01T07:49:47;25.33;;;13.67;;
64936;SDS011;51452;47.698;19.050;2023-01-01T07:52:13;25.27;;;14.57;;
64936;SDS011;51452;47.698;19.050;2023-01-01T07:54:38;26.77;;;13.83;;
64936;SDS011;51452;47.698;19.050;2023-01-01T07:57:04;27.10;;;14.73;;
64936;SDS011;51452;47.698;19.050;2023-01-01T07:59:29;22.17;;;12.40;;
64936;SDS011;51452;47.698;19.050;2023-01-01T08:01:55;22.20;;;13.17;;
64936;SDS011;51452;47.698;19.050;2023-01-01T08:04:20;20.40;;;11.97;;
64936;SDS011;51452;47.698;19.050;2023-01-01T08:06:46;23.37;;;13.93;;
64936;SDS011;51452;47.698;19.050;2023-01-01T08:09:11;22.13;;;12.80;;
64936;SDS011;51452;47.698;19.050;2023-01-01T08:11:36;19.93;;;12.53;;
64936;SDS011;51452;47.698;19.050;2023-01-01T08:14:02;21.90;;;12.90;;
64936;SDS011;51452;47.698;19.050;2023-01-01T08:16:27;20.83;;;13.57;;
64936;SDS011;51452;47.698;19.050;2023-01-01T08:18:53;26.43;;;14.43;;
64936;SDS011;51452;47.698;19.050;2023-01-01T08:21:18;21.73;;;12.97;;
64936;SDS011;51452;47.698;19.050;2023-01-01T08:23:43;27.97;;;17.27;;
64936;SDS011;51452;47.698;19.050;2023-01-01T08:26:12;27.10;;;16.20;;
64936;SDS011;51452;47.698;19.050;2023-01-01T08:28:39;28.47;;;15.67;;
64936;SDS011;51452;47.698;19.050;2023-01-01T08:31:04;25.50;;;15.67;;
64936;SDS011;51452;47.698;19.050;2023-01-01T08:33:30;28.87;;;16.87;;
64936;SDS011;51452;47.698;19.050;2023-01-01T08:35:55;30.07;;;15.77;;
64936;SDS011;51452;47.698;19.050;2023-01-01T08:38:21;34.00;;;18.57;;
64936;SDS011;51452;47.698;19.050;2023-01-01T08:40:46;28.13;;;15.60;;
64936;SDS011;51452;47.698;19.050;2023-01-01T08:43:11;21.80;;;13.50;;
64936;SDS011;51452;47.698;19.050;2023-01-01T08:45:37;24.53;;;15.13;;
64936;SDS011;51452;47.698;19.050;2023-01-01T08:48:02;46.97;;;19.83;;
64936;SDS011;51452;47.698;19.050;2023-01-01T08:50:28;55.93;;;24.00;;
64936;SDS011;51452;47.698;19.050;2023-01-01T08:52:53;61.83;;;24.30;;
64936;SDS011;51452;47.698;19.050;2023-01-01T08:55:19;55.63;;;23.63;;
64936;SDS011;51452;47.698;19.050;2023-01-01T08:57:44;49.72;;;23.25;;
64936;SDS011;51452;47.698;19.050;2023-01-01T09:00:10;46.50;;;22.03;;
64936;SDS011;51452;47.698;19.050;2023-01-01T09:02:37;32.20;;;17.40;;
64936;SDS011;51452;47.698;19.050;2023-01-01T09:05:03;42.75;;;21.15;;
64936;SDS011;51452;47.698;19.050;2023-01-01T09:07:28;64.43;;;27.40;;
64936;SDS011;51452;47.698;19.050;2023-01-01T09:09:54;74.10;;;28.83;;
64936;SDS011;51452;47.698;19.050;2023-01-01T09:12:19;78.45;;;31.42;;
64936;SDS011;51452;47.698;19.050;2023-01-01T09:14:47;86.57;;;30.87;;
64936;SDS011;51452;47.698;19.050;2023-01-01T09:17:13;59.17;;;23.57;;
64936;SDS011;51452;47.698;19.050;2023-01-01T09:19:38;70.25;;;26.67;;
64936;SDS011;51452;47.698;19.050;2023-01-01T09:22:07;57.65;;;25.48;;
64936;SDS011;51452;47.698;19.050;2023-01-01T09:24:36;50.87;;;23.50;;
64936;SDS011;51452;47.698;19.050;2023-01-01T09:27:01;51.97;;;21.83;;
64936;SDS011;51452;47.698;19.050;2023-01-01T09:29:27;63.92;;;21.55;;
64936;SDS011;51452;47.698;19.050;2023-01-01T09:31:52;48.38;;;23.50;;
64936;SDS011;51452;47.698;19.050;2023-01-01T09:34:17;44.53;;;22.13;;
64936;SDS011;51452;47.698;19.050;2023-01-01T09:36:44;43.85;;;21.63;;
64936;SDS011;51452;47.698;19.050;2023-01-01T09:39:10;40.92;;;20.25;;
64936;SDS011;51452;47.698;19.050;2023-01-01T09:46:34;28.65;;;16.30;;
64936;SDS011;51452;47.698;19.050;2023-01-01T09:49:02;35.60;;;18.77;;
64936;SDS011;51452;47.698;19.050;2023-01-01T09:51:35;38.65;;;20.65;;
64936;SDS011;51452;47.698;19.050;2023-01-01T09:56:32;37.00;;;20.92;;
64936;SDS011;51452;47.698;19.050;2023-01-01T09:59:00;34.88;;;18.52;;
64936;SDS011;51452;47.698;19.050;2023-01-01T10:12:59;57.97;;;25.80;;
64936;SDS011;51452;47.698;19.050;2023-01-01T10:17:58;46.30;;;23.57;;
64936;SDS011;51452;47.698;19.050;2023-01-01T10:20:43;46.95;;;24.83;;
64936;SDS011;51452;47.698;19.050;2023-01-01T10:23:25;49.75;;;26.02;;
64936;SDS011;51452;47.698;19.050;2023-01-01T10:25:55;52.00;;;27.00;;
64936;SDS011;51452;47.698;19.050;2023-01-01T10:28:32;55.13;;;26.58;;
64936;SDS011;51452;47.698;19.050;2023-01-01T10:31:10;52.90;;;28.35;;
64936;SDS011;51452;47.698;19.050;2023-01-01T10:33:39;55.25;;;27.48;;
64936;SDS011;51452;47.698;19.050;2023-01-01T10:36:05;60.63;;;28.83;;
64936;SDS011;51452;47.698;19.050;2023-01-01T10:38:34;62.00;;;28.95;;
64936;SDS011;51452;47.698;19.050;2023-01-01T10:41:10;54.78;;;28.20;;
64936;SDS011;51452;47.698;19.050;2023-01-01T10:43:36;52.97;;;27.33;;
64936;SDS011;51452;47.698;19.050;2023-01-01T10:46:02;58.70;;;29.80;;
64936;SDS011;51452;47.698;19.050;2023-01-01T10:48:29;56.25;;;29.65;;
64936;SDS011;51452;47.698;19.050;2023-01-01T10:50:56;57.15;;;29.40;;
64936;SDS011;51452;47.698;19.050;2023-01-01T10:56:22;55.13;;;27.35;;
64936;SDS011;51452;47.698;19.050;2023-01-01T10:58:52;52.83;;;28.00;;
64936;SDS011;51452;47.698;19.050;2023-01-01T11:06:23;48.35;;;26.90;;
64936;SDS011;51452;47.698;19.050;2023-01-01T11:08:57;47.05;;;25.83;;
64936;SDS011;51452;47.698;19.050;2023-01-01T11:11:25;50.45;;;26.20;;
64936;SDS011;51452;47.698;19.050;2023-01-01T11:13:54;48.15;;;27.08;;
64936;SDS011;51452;47.698;19.050;2023-01-01T11:16:21;50.40;;;27.52;;
64936;SDS011;51452;47.698;19.050;2023-01-01T11:18:47;50.83;;;27.55;;
64936;SDS011;51452;47.698;19.050;2023-01-01T11:21:18;50.08;;;26.15;;
64936;SDS011;51452;47.698;19.050;2023-01-01T11:23:45;47.80;;;25.45;;
64936;SDS011;51452;47.698;19.050;2023-01-01T11:28:38;44.38;;;24.95;;
64936;SDS011;51452;47.698;19.050;2023-01-01T11:31:14;48.85;;;27.08;;
64936;SDS011;51452;47.698;19.050;2023-01-01T11:36:19;47.90;;;25.13;;
64936;SDS011;51452;47.698;19.050;2023-01-01T11:38:50;46.33;;;26.38;;
64936;SDS011;51452;47.698;19.050;2023-01-01T11:41:28;47.53;;;24.75;;
64936;SDS011;51452;47.698;19.050;2023-01-01T11:46:59;43.33;;;24.70;;
64936;SDS011;51452;47.698;19.050;2023-01-01T11:49:25;43.70;;;25.48;;
64936;SDS011;51452;47.698;19.050;2023-01-01T11:51:54;43.63;;;24.48;;
64936;SDS011;51452;47.698;19.050;2023-01-01T11:57:20;43.58;;;23.92;;
64936;SDS011;51452;47.698;19.050;2023-01-01T11:59:49;48.38;;;24.65;;
64936;SDS011;51452;47.698;19.050;2023-01-01T12:02:30;37.80;;;22.63;;
64936;SDS011;51452;47.698;19.050;2023-01-01T12:07:48;40.85;;;22.98;;
64936;SDS011;51452;47.698;19.050;2023-01-01T12:10:19;39.63;;;22.45;;
64936;SDS011;51452;47.698;19.050;2023-01-01T12:15:17;47.05;;;25.13;;
64936;SDS011;51452;47.698;19.050;2023-01-01T12:20:34;46.20;;;24.58;;
64936;SDS011;51452;47.698;19.050;2023-01-01T12:23:02;42.33;;;23.25;;
64936;SDS011;51452;47.698;19.050;2023-01-01T12:25:38;43.20;;;23.75;;
64936;SDS011;51452;47.698;19.050;2023-01-01T12:36:36;35.03;;;19.70;;
64936;SDS011;51452;47.698;19.050;2023-01-01T12:47:31;33.20;;;18.60;;
64936;SDS011;51452;47.698;19.050;2023-01-01T12:50:21;30.77;;;18.50;;
64936;SDS011;51452;47.698;19.050;2023-01-01T12:56:02;36.92;;;18.02;;
64936;SDS011;51452;47.698;19.050;2023-01-01T12:58:33;35.10;;;18.92;;
64936;SDS011;51452;47.698;19.050;2023-01-01T13:01:20;38.00;;;20.25;;
64936;SDS011;51452;47.698;19.050;2023-01-01T13:03:56;38.35;;;21.60;;
64936;SDS011;51452;47.698;19.050;2023-01-01T13:09:10;37.33;;;20.95;;
64936;SDS011;51452;47.698;19.050;2023-01-01T13:11:38;36.53;;;20.35;;
64936;SDS011;51452;47.698;19.050;2023-01-01T13:14:06;31.83;;;19.23;;
64936;SDS011;51452;47.698;19.050;2023-01-01T13:16:32;34.05;;;19.33;;
64936;SDS011;51452;47.698;19.050;2023-01-01T13:18:58;33.17;;;18.88;;
64936;SDS011;51452;47.698;19.050;2023-01-01T13:21:24;32.47;;;18.92;;
64936;SDS011;51452;47.698;19.050;2023-01-01T13:23:50;38.35;;;19.13;;
64936;SDS011;51452;47.698;19.050;2023-01-01T13:45:17;32.67;;;18.25;;
64936;SDS011;51452;47.698;19.050;2023-01-01T14:01:56;38.88;;;19.80;;
64936;SDS011;51452;47.698;19.050;2023-01-01T14:10:23;33.53;;;18.55;;
64936;SDS011;51452;47.698;19.050;2023-01-01T14:12:52;73.07;;;20.25;;
64936;SDS011;51452;47.698;19.050;2023-01-01T14:15:37;50.65;;;19.90;;
64936;SDS011;51452;47.698;19.050;2023-01-01T14:18:05;39.03;;;20.77;;
64936;SDS011;51452;47.698;19.050;2023-01-01T14:20:38;60.42;;;21.30;;
64936;SDS011;51452;47.698;19.050;2023-01-01T14:23:09;41.17;;;20.98;;
64936;SDS011;51452;47.698;19.050;2023-01-01T14:25:39;41.20;;;19.90;;
64936;SDS011;51452;47.698;19.050;2023-01-01T14:28:15;38.45;;;20.92;;
64936;SDS011;51452;47.698;19.050;2023-01-01T14:30:45;40.28;;;19.90;;
64936;SDS011;51452;47.698;19.050;2023-01-01T14:33:20;36.63;;;20.13;;
64936;SDS011;51452;47.698;19.050;2023-01-01T14:35:51;36.83;;;21.58;;
64936;SDS011;51452;47.698;19.050;2023-01-01T14:38:24;47.65;;;22.40;;
64936;SDS011;51452;47.698;19.050;2023-01-01T14:43:39;45.97;;;21.50;;
64936;SDS011;51452;47.698;19.050;2023-01-01T14:46:06;42.05;;;21.92;;
64936;SDS011;51452;47.698;19.050;2023-01-01T14:48:37;45.00;;;22.10;;
64936;SDS011;51452;47.698;19.050;2023-01-01T14:51:08;40.00;;;20.98;;
64936;SDS011;51452;47.698;19.050;2023-01-01T14:53:39;40.95;;;20.60;;
64936;SDS011;51452;47.698;19.050;2023-01-01T14:56:06;42.90;;;21.33;;
64936;SDS011;51452;47.698;19.050;2023-01-01T14:58:31;46.45;;;23.77;;
64936;SDS011;51452;47.698;19.050;2023-01-01T15:01:14;41.80;;;21.63;;
64936;SDS011;51452;47.698;19.050;2023-01-01T15:03:56;36.75;;;19.88;;
64936;SDS011;51452;47.698;19.050;2023-01-01T15:06:23;41.20;;;19.95;;
64936;SDS011;51452;47.698;19.050;2023-01-01T15:08:49;36.60;;;20.73;;
64936;SDS011;51452;47.698;19.050;2023-01-01T15:11:16;40.33;;;21.35;;
64936;SDS011;51452;47.698;19.050;2023-01-01T15:13:51;40.28;;;20.90;;
64936;SDS011;51452;47.698;19.050;2023-01-01T15:16:22;37.08;;;20.05;;
64936;SDS011;51452;47.698;19.050;2023-01-01T15:18:48;34.15;;;18.65;;
64936;SDS011;51452;47.698;19.050;2023-01-01T15:23:54;36.95;;;19.25;;
64936;SDS011;51452;47.698;19.050;2023-01-01T15:28:57;33.05;;;19.55;;
64936;SDS011;51452;47.698;19.050;2023-01-01T15:31:32;34.38;;;19.52;;
64936;SDS011;51452;47.698;19.050;2023-01-01T15:34:02;37.03;;;20.42;;
64936;SDS011;51452;47.698;19.050;2023-01-01T15:36:28;41.97;;;22.10;;
64936;SDS011;51452;47.698;19.050;2023-01-01T15:38:54;32.05;;;18.50;;
64936;SDS011;51452;47.698;19.050;2023-01-01T15:41:32;34.25;;;19.25;;
64936;SDS011;51452;47.698;19.050;2023-01-01T15:44:27;29.70;;;17.27;;
64936;SDS011;51452;47.698;19.050;2023-01-01T15:47:04;38.13;;;18.92;;
64936;SDS011;51452;47.698;19.050;2023-01-01T15:49:36;30.88;;;17.77;;
64936;SDS011;51452;47.698;19.050;2023-01-01T15:52:03;28.67;;;17.17;;
64936;SDS011;51452;47.698;19.050;2023-01-01T15:54:34;30.92;;;17.80;;
64936;SDS011;51452;47.698;19.050;2023-01-01T15:57:02;29.48;;;16.95;;
64936;SDS011;51452;47.698;19.050;2023-01-01T15:59:35;28.80;;;17.27;;
64936;SDS011;51452;47.698;19.050;2023-01-01T16:02:04;26.90;;;15.93;;
64936;SDS011;51452;47.698;19.050;2023-01-01T16:04:38;27.80;;;16.13;;
64936;SDS011;51452;47.698;19.050;2023-01-01T16:07:04;30.65;;;16.75;;
64936;SDS011;51452;47.698;19.050;2023-01-01T16:09:38;27.90;;;15.88;;
64936;SDS011;51452;47.698;19.050;2023-01-01T16:12:04;27.90;;;16.90;;
64936;SDS011;51452;47.698;19.050;2023-01-01T16:14:29;30.77;;;16.48;;
64936;SDS011;51452;47.698;19.050;2023-01-01T16:16:55;26.95;;;15.43;;
64936;SDS011;51452;47.698;19.050;2023-01-01T16:19:24;25.25;;;14.75;;
64936;SDS011;51452;47.698;19.050;2023-01-01T16:21:50;29.73;;;15.63;;
64936;SDS011;51452;47.698;19.050;2023-01-01T16:24:17;27.83;;;15.05;;
64936;SDS011;51452;47.698;19.050;2023-01-01T16:26:43;25.88;;;15.60;;
64936;SDS011;51452;47.698;19.050;2023-01-01T16:29:09;26.73;;;17.27;;
64936;SDS011;51452;47.698;19.050;2023-01-01T16:31:35;26.15;;;14.95;;
64936;SDS011;51452;47.698;19.050;2023-01-01T16:34:01;28.80;;;16.27;;
64936;SDS011;51452;47.698;19.050;2023-01-01T16:36:27;26.65;;;15.10;;
64936;SDS011;51452;47.698;19.050;2023-01-01T16:38:53;24.80;;;15.23;;
64936;SDS011;51452;47.698;19.050;2023-01-01T16:41:20;22.63;;;13.55;;
64936;SDS011;51452;47.698;19.050;2023-01-01T16:43:46;26.33;;;14.52;;
64936;SDS011;51452;47.698;19.050;2023-01-01T16:46:12;24.63;;;13.90;;
64936;SDS011;51452;47.698;19.050;2023-01-01T16:48:37;26.20;;;15.20;;